Time;durP1;ratioP1;P1;durP2;ratioP2;P2;SDS_P1;SDS_P2;PMS_P1;PMS_P2;Temp;Humidity;BMP_temperature;BMP_pressure;BME280_temperature;BME280_humidity;BME280_pressure;Samples;Min_cycle;Max_cycle;Signal;HPM_P1;HPM_P2
2024/03/24 00:02:04;;;;;;;2.23;1.47;;;7.00;99.90;;;;;;5031418;28;20639;-77
2024/03/24 00:04:29;;;;;;;1.87;1.00;;;7.00;99.90;;;;;;5031479;28;20181;-78
2024/03/24 00:06:57;;;;;;;2.70;0.93;;;7.00;99.90;;;;;;5030185;28;20192;-78
2024/03/24 00:09:22;;;;;;;2.95;1.00;;;7.00;99.90;;;;;;5030019;28;20202;-77
2024/03/24 00:11:48;;;;;;;1.50;1.00;;;6.90;99.90;;;;;;5013550;28;20248;-78
2024/03/24 00:14:14;;;;;;;3.53;1.13;;;6.90;99.90;;;;;;5031270;28;20180;-78
2024/03/24 00:16:40;;;;;;;1.60;0.90;;;6.90;99.90;;;;;;5047246;28;20181;-78
2024/03/24 00:19:05;;;;;;;2.00;0.90;;;6.80;99.90;;;;;;5034715;28;21297;-77
2024/03/24 00:21:31;;;;;;;2.00;1.00;;;6.80;99.90;;;;;;5036884;28;20200;-77
2024/03/24 00:24:01;;;;;;;2.35;0.90;;;6.70;99.90;;;;;;5046245;28;20181;-77
2024/03/24 00:26:27;;;;;;;2.20;1.00;;;6.70;99.90;;;;;;5031391;28;20185;-77
2024/03/24 00:28:54;;;;;;;2.15;1.20;;;6.60;99.90;;;;;;5037838;28;20295;-79
2024/03/24 00:31:23;;;;;;;2.15;0.90;;;6.60;99.90;;;;;;5031221;28;20201;-78
2024/03/24 00:33:49;;;;;;;2.08;1.00;;;6.60;99.90;;;;;;5046273;28;20268;-78
2024/03/24 00:36:15;;;;;;;2.78;1.25;;;6.60;99.90;;;;;;5030076;28;20165;-78
2024/03/24 00:38:41;;;;;;;2.20;1.03;;;6.60;99.90;;;;;;5046371;28;20643;-78
2024/03/24 00:41:10;;;;;;;3.95;1.45;;;6.60;99.90;;;;;;5045677;28;20166;-78
2024/03/24 00:43:36;;;;;;;2.80;1.43;;;6.50;99.90;;;;;;5013351;28;20188;-78
2024/03/24 00:46:03;;;;;;;2.72;1.30;;;6.50;99.90;;;;;;5046658;28;20200;-78
2024/03/24 00:48:29;;;;;;;2.97;1.30;;;6.50;99.90;;;;;;5036537;28;20223;-78
2024/03/24 00:50:55;;;;;;;1.77;1.13;;;6.50;99.90;;;;;;5049257;28;20201;-77
2024/03/24 00:53:21;;;;;;;3.20;1.20;;;6.50;99.90;;;;;;5020588;28;20219;-78
2024/03/24 00:55:48;;;;;;;2.92;1.30;;;6.50;99.90;;;;;;5039077;28;20176;-78
2024/03/24 00:58:14;;;;;;;2.80;1.30;;;6.50;99.90;;;;;;5041351;28;20207;-77
2024/03/24 01:00:40;;;;;;;2.60;1.10;;;6.50;99.90;;;;;;5036649;28;20890;-78
2024/03/24 01:03:06;;;;;;;2.47;1.20;;;6.50;99.90;;;;;;5045874;28;20584;-79
2024/03/24 01:05:31;;;;;;;3.90;1.50;;;6.60;99.90;;;;;;5049365;28;20215;-78
2024/03/24 01:07:57;;;;;;;2.90;1.20;;;6.60;99.90;;;;;;5041192;28;20235;-78
2024/03/24 01:10:24;;;;;;;3.70;1.55;;;6.60;99.90;;;;;;5029385;28;20212;-79
2024/03/24 01:12:49;;;;;;;3.33;1.30;;;6.70;99.90;;;;;;5030679;28;20260;-78
2024/03/24 01:15:16;;;;;;;3.73;1.60;;;6.70;99.90;;;;;;5037882;28;20265;-79
2024/03/24 01:17:43;;;;;;;3.67;1.70;;;6.70;99.90;;;;;;5030486;28;20908;-78
2024/03/24 01:20:12;;;;;;;3.22;1.48;;;6.70;99.90;;;;;;5029202;28;20181;-78
2024/03/24 01:22:42;;;;;;;1.90;1.00;;;6.80;99.90;;;;;;5049657;28;20509;-78
2024/03/24 01:25:08;;;;;;;2.65;1.00;;;6.80;99.90;;;;;;5039390;28;20277;-79
2024/03/24 01:27:34;;;;;;;2.60;1.15;;;6.80;99.90;;;;;;5049378;28;20272;-79
2024/03/24 01:30:00;;;;;;;3.58;1.30;;;6.80;99.90;;;;;;5031257;28;20238;-79
2024/03/24 01:32:26;;;;;;;2.05;1.30;;;6.80;99.90;;;;;;5029177;28;20182;-79
2024/03/24 01:34:52;;;;;;;2.70;1.37;;;6.80;99.90;;;;;;5030308;28;20177;-79
2024/03/24 01:37:18;;;;;;;2.30;1.00;;;6.80;99.90;;;;;;5037573;28;20664;-79
2024/03/24 01:39:48;;;;;;;3.93;1.10;;;6.80;99.90;;;;;;5031109;28;20169;-79
2024/03/24 01:42:15;;;;;;;3.33;1.10;;;6.80;99.90;;;;;;5037075;28;20584;-79
2024/03/24 01:44:41;;;;;;;2.00;1.35;;;6.80;99.90;;;;;;5030211;28;20177;-78
2024/03/24 01:47:09;;;;;;;2.10;1.00;;;6.80;99.90;;;;;;5038402;28;20603;-79
2024/03/24 01:49:36;;;;;;;2.53;0.90;;;6.80;99.90;;;;;;5046559;28;20188;-78
2024/03/24 01:52:08;;;;;;;2.58;1.42;;;6.80;99.90;;;;;;5037546;28;20871;-77
2024/03/24 01:54:34;;;;;;;2.30;1.10;;;6.90;99.90;;;;;;5039528;28;20181;-79
2024/03/24 01:57:01;;;;;;;3.30;1.20;;;6.90;99.90;;;;;;5040897;28;20535;-79
2024/03/24 01:59:26;;;;;;;6.25;1.75;;;6.90;99.90;;;;;;5045817;28;20615;-79
2024/03/24 02:01:53;;;;;;;2.10;1.50;;;6.90;99.90;;;;;;5052875;28;20587;-79
2024/03/24 02:04:19;;;;;;;2.95;1.40;;;7.00;99.90;;;;;;5052567;28;20512;-79
2024/03/24 02:06:45;;;;;;;3.13;1.77;;;7.00;99.90;;;;;;5060075;28;20179;-79
2024/03/24 02:09:10;;;;;;;3.60;1.57;;;7.10;99.90;;;;;;5034205;28;20622;-79
2024/03/24 02:11:36;;;;;;;2.00;1.47;;;7.10;99.90;;;;;;5048506;28;20201;-78
2024/03/24 02:14:02;;;;;;;3.38;2.03;;;7.10;99.90;;;;;;5054010;28;20584;-79
2024/03/24 02:16:29;;;;;;;6.00;1.33;;;7.10;99.90;;;;;;5036875;28;20710;-79
2024/03/24 02:18:54;;;;;;;4.07;2.13;;;7.10;99.90;;;;;;5053629;28;21206;-79
2024/03/24 02:21:20;;;;;;;2.80;2.20;;;7.20;99.90;;;;;;5050111;28;20178;-79
2024/03/24 02:23:49;;;;;;;4.00;2.13;;;7.10;99.90;;;;;;5048032;28;20579;-79
2024/03/24 02:26:15;;;;;;;3.13;2.33;;;7.10;99.90;;;;;;5046243;28;20196;-79
2024/03/24 02:28:41;;;;;;;2.85;1.95;;;7.10;99.90;;;;;;5030590;28;20201;-79
2024/03/24 02:31:07;;;;;;;4.13;2.63;;;7.00;99.90;;;;;;5052576;28;20700;-79
2024/03/24 02:33:33;;;;;;;6.00;2.23;;;7.10;99.90;;;;;;5028090;28;20169;-79
2024/03/24 02:35:59;;;;;;;4.37;3.10;;;7.10;99.90;;;;;;5054575;28;20177;-79
2024/03/24 02:38:24;;;;;;;6.43;2.70;;;7.10;99.90;;;;;;5048813;28;20639;-79
2024/03/24 02:40:50;;;;;;;5.00;3.10;;;7.10;99.90;;;;;;5032801;28;20174;-79
2024/03/24 02:43:16;;;;;;;3.63;2.97;;;7.10;99.90;;;;;;5060032;28;20646;-78
2024/03/24 02:45:42;;;;;;;3.50;3.00;;;7.20;99.90;;;;;;5040773;28;21133;-78
2024/03/24 02:48:08;;;;;;;3.67;2.78;;;7.30;99.90;;;;;;5051071;28;20217;-78
2024/03/24 02:50:34;;;;;;;4.73;2.90;;;7.30;99.90;;;;;;5038012;28;20730;-78
2024/03/24 02:53:01;;;;;;;6.40;4.70;;;7.30;99.90;;;;;;5067409;28;20181;-78
2024/03/24 02:55:27;;;;;;;6.25;3.72;;;7.30;99.90;;;;;;5069371;28;20176;-78
2024/03/24 02:57:53;;;;;;;3.70;3.00;;;7.30;99.90;;;;;;5051682;28;20200;-78
2024/03/24 03:00:19;;;;;;;5.78;3.65;;;7.40;99.90;;;;;;5073974;28;20263;-77
2024/03/24 03:02:45;;;;;;;4.20;3.63;;;7.40;99.90;;;;;;5064065;28;20200;-79
2024/03/24 03:05:11;;;;;;;6.32;3.92;;;7.50;99.90;;;;;;5056950;28;20591;-78
2024/03/24 03:07:39;;;;;;;4.55;4.03;;;7.50;99.90;;;;;;5055149;28;20189;-78
2024/03/24 03:10:08;;;;;;;4.83;3.77;;;7.50;99.90;;;;;;5037265;28;20222;-78
2024/03/24 03:12:42;;;;;;;6.07;3.88;;;7.50;99.90;;;;;;5058158;28;20184;-78
2024/03/24 03:15:14;;;;;;;5.90;4.18;;;7.50;99.90;;;;;;5063398;28;20518;-77
2024/03/24 03:17:42;;;;;;;7.13;3.65;;;7.60;99.90;;;;;;5020260;28;20304;-77
2024/03/24 03:20:12;;;;;;;5.50;3.85;;;7.60;99.90;;;;;;5028248;28;20200;-78
2024/03/24 03:22:39;;;;;;;7.30;4.68;;;7.60;99.90;;;;;;5050020;28;20212;-78
2024/03/24 03:25:07;;;;;;;4.88;3.10;;;7.60;99.90;;;;;;5062402;28;20197;-79
2024/03/24 03:27:33;;;;;;;4.25;3.75;;;7.60;99.90;;;;;;5053246;28;20196;-78
2024/03/24 03:29:58;;;;;;;4.03;3.15;;;7.70;99.90;;;;;;5059713;28;20196;-79
2024/03/24 03:32:24;;;;;;;5.10;3.03;;;7.70;99.90;;;;;;5044838;28;20223;-78
2024/03/24 03:34:51;;;;;;;4.10;2.40;;;7.70;99.90;;;;;;5044044;28;20226;-78
2024/03/24 03:37:18;;;;;;;4.15;3.05;;;7.70;99.90;;;;;;5060594;28;20180;-78
2024/03/24 03:39:44;;;;;;;3.30;1.90;;;7.70;99.90;;;;;;5043721;28;20674;-78
2024/03/24 03:42:10;;;;;;;4.97;2.38;;;7.70;99.90;;;;;;5067539;28;20181;-79
2024/03/24 03:44:36;;;;;;;4.07;2.30;;;7.60;99.90;;;;;;5015083;28;20208;-78
2024/03/24 03:47:02;;;;;;;2.47;1.40;;;7.60;99.90;;;;;;5041984;28;20173;-78
2024/03/24 03:49:27;;;;;;;1.83;1.40;;;7.50;99.90;;;;;;5053046;28;20615;-78
2024/03/24 03:51:56;;;;;;;3.03;1.37;;;7.50;99.90;;;;;;5059114;28;20262;-77
2024/03/24 03:54:26;;;;;;;2.10;1.35;;;7.40;99.90;;;;;;5056153;28;20185;-78
2024/03/24 03:56:53;;;;;;;2.50;1.15;;;7.40;99.90;;;;;;5064512;28;20705;-78
2024/03/24 03:59:19;;;;;;;2.55;1.33;;;7.30;99.90;;;;;;5038239;28;20201;-79
2024/03/24 04:01:45;;;;;;;2.83;1.50;;;7.30;99.90;;;;;;5040502;28;20572;-80
2024/03/24 04:04:10;;;;;;;4.33;1.00;;;7.30;99.90;;;;;;4998347;28;20178;-78
2024/03/24 04:06:39;;;;;;;3.20;1.47;;;7.30;99.90;;;;;;5035245;28;20185;-78
2024/03/24 04:09:08;;;;;;;2.15;1.50;;;7.30;99.90;;;;;;5034462;28;20287;-78
2024/03/24 04:11:37;;;;;;;2.22;1.10;;;7.30;99.90;;;;;;5028621;28;20208;-77
2024/03/24 04:14:03;;;;;;;2.23;1.70;;;7.20;99.90;;;;;;5030168;28;20169;-77
2024/03/24 04:16:28;;;;;;;1.87;1.20;;;7.20;99.90;;;;;;5038143;28;20663;-78
2024/03/24 04:18:54;;;;;;;5.90;1.30;;;7.20;99.90;;;;;;5053750;28;20208;-78
2024/03/24 04:21:20;;;;;;;2.20;1.23;;;7.20;99.90;;;;;;5031215;28;20192;-78
2024/03/24 04:23:45;;;;;;;2.90;1.67;;;7.20;99.90;;;;;;5031558;28;20188;-77
2024/03/24 04:26:11;;;;;;;1.60;1.10;;;7.20;99.90;;;;;;5030066;28;20197;-78
2024/03/24 04:28:37;;;;;;;2.13;1.10;;;7.20;99.90;;;;;;5030321;28;20251;-78
2024/03/24 04:31:02;;;;;;;3.37;1.37;;;7.20;99.90;;;;;;5047801;28;20212;-78
2024/03/24 04:33:28;;;;;;;4.93;1.47;;;7.20;99.90;;;;;;5046751;28;20648;-78
2024/03/24 04:35:54;;;;;;;4.47;1.47;;;7.20;99.90;;;;;;5031097;28;20705;-78
2024/03/24 04:38:19;;;;;;;4.43;1.73;;;7.20;99.90;;;;;;5032666;28;20251;-78
2024/03/24 04:40:45;;;;;;;3.07;1.47;;;7.20;99.90;;;;;;5042919;28;20267;-78
2024/03/24 04:43:13;;;;;;;3.78;1.50;;;7.20;99.90;;;;;;5053675;28;20188;-78
2024/03/24 04:45:42;;;;;;;2.15;1.60;;;7.20;99.90;;;;;;5043540;28;20173;-78
2024/03/24 04:48:07;;;;;;;3.10;1.40;;;7.20;99.90;;;;;;5041726;28;20357;-78
2024/03/24 04:50:33;;;;;;;4.00;1.60;;;7.20;99.90;;;;;;5035733;28;20275;-78
2024/03/24 04:52:59;;;;;;;3.23;1.50;;;7.20;99.90;;;;;;5050979;28;20177;-78
2024/03/24 04:55:28;;;;;;;5.43;1.27;;;7.20;99.90;;;;;;5049682;28;20583;-79
2024/03/24 04:57:54;;;;;;;2.53;1.50;;;7.20;99.90;;;;;;5035358;28;20252;-78
2024/03/24 05:00:19;;;;;;;1.70;1.20;;;7.20;99.90;;;;;;5039393;28;20169;-78
2024/03/24 05:02:46;;;;;;;3.63;2.00;;;7.20;99.90;;;;;;5033811;28;20239;-78
2024/03/24 05:05:12;;;;;;;5.32;2.35;;;7.20;99.90;;;;;;5046052;28;20588;-77
2024/03/24 05:07:38;;;;;;;2.55;1.50;;;7.20;99.90;;;;;;5042793;28;20284;-77
2024/03/24 05:10:05;;;;;;;5.70;2.33;;;7.20;99.90;;;;;;5034284;28;20703;-78
2024/03/24 05:12:31;;;;;;;6.20;2.50;;;7.20;99.90;;;;;;5017536;28;21159;-78
2024/03/24 05:14:57;;;;;;;2.70;1.50;;;7.20;99.90;;;;;;5051461;28;20223;-78
2024/03/24 05:17:23;;;;;;;5.90;1.90;;;7.20;99.90;;;;;;5047253;28;20182;-78
2024/03/24 05:19:49;;;;;;;1.70;1.40;;;7.20;99.90;;;;;;5040120;28;20184;-78
2024/03/24 05:22:15;;;;;;;2.77;1.83;;;7.20;99.90;;;;;;5043535;28;20185;-78
2024/03/24 05:24:41;;;;;;;4.40;2.15;;;7.20;99.90;;;;;;5044055;28;20177;-78
2024/03/24 05:27:06;;;;;;;2.20;1.80;;;7.20;99.90;;;;;;5062042;28;20172;-78
2024/03/24 05:29:32;;;;;;;2.80;1.90;;;7.20;99.90;;;;;;5055099;28;20237;-78
2024/03/24 05:32:00;;;;;;;7.13;2.50;;;7.20;99.90;;;;;;5037888;28;20628;-78
2024/03/24 05:34:26;;;;;;;5.38;1.77;;;7.20;99.90;;;;;;5042906;28;20201;-78
2024/03/24 05:36:52;;;;;;;3.20;1.80;;;7.20;99.90;;;;;;5049835;28;20627;-78
2024/03/24 05:39:19;;;;;;;7.05;2.30;;;7.20;99.90;;;;;;5045400;28;20196;-78
2024/03/24 05:41:48;;;;;;;7.03;2.72;;;7.30;99.90;;;;;;5048313;28;20184;-77
2024/03/24 05:44:15;;;;;;;4.93;1.90;;;7.30;99.90;;;;;;5055144;28;20185;-78
2024/03/24 05:46:41;;;;;;;4.88;2.15;;;7.30;99.90;;;;;;5053504;28;20173;-78
2024/03/24 05:49:08;;;;;;;3.08;2.00;;;7.30;99.90;;;;;;5036887;28;20647;-77
2024/03/24 05:51:34;;;;;;;2.92;1.85;;;7.30;99.90;;;;;;5053961;28;20201;-77
2024/03/24 05:53:59;;;;;;;6.40;2.50;;;7.30;99.90;;;;;;5062271;28;20173;-77
2024/03/24 05:56:25;;;;;;;5.93;2.33;;;7.40;99.90;;;;;;5058394;28;20618;-78
2024/03/24 05:58:52;;;;;;;4.78;2.08;;;7.40;99.90;;;;;;5056112;28;20666;-79
2024/03/24 06:01:17;;;;;;;4.27;2.43;;;7.40;99.90;;;;;;5054713;28;20201;-78
2024/03/24 06:03:43;;;;;;;4.57;2.13;;;7.40;99.90;;;;;;5053308;28;20697;-78
2024/03/24 06:06:09;;;;;;;7.30;2.17;;;7.50;99.90;;;;;;5045270;28;20181;-77
2024/03/24 06:08:35;;;;;;;5.15;2.97;;;7.50;99.90;;;;;;5046922;28;20230;-77
2024/03/24 06:11:03;;;;;;;4.80;2.53;;;7.50;99.90;;;;;;5054404;28;20204;-79
2024/03/24 06:13:29;;;;;;;7.00;2.90;;;7.60;99.90;;;;;;5046166;28;20196;-79
2024/03/24 06:15:54;;;;;;;5.83;2.87;;;7.60;99.90;;;;;;5054140;28;20199;-79
2024/03/24 06:18:20;;;;;;;15.10;3.47;;;7.60;99.90;;;;;;5052615;28;20205;-79
2024/03/24 06:20:46;;;;;;;7.50;2.90;;;7.70;99.90;;;;;;5054097;28;20185;-79
2024/03/24 06:23:11;;;;;;;5.70;3.40;;;7.70;99.90;;;;;;5036523;28;20276;-79
2024/03/24 06:25:37;;;;;;;5.60;2.33;;;7.70;99.90;;;;;;5046320;28;20578;-78
2024/03/24 06:28:03;;;;;;;11.60;3.17;;;7.80;99.90;;;;;;5034503;28;20208;-77
2024/03/24 06:30:29;;;;;;;6.63;2.47;;;7.80;99.90;;;;;;5043182;28;20717;-78
2024/03/24 06:32:56;;;;;;;4.37;3.10;;;7.90;99.90;;;;;;5038892;28;20714;-78
2024/03/24 06:35:21;;;;;;;7.63;3.40;;;8.00;99.90;;;;;;5036740;28;20588;-78
2024/03/24 06:37:47;;;;;;;8.90;3.30;;;8.00;99.90;;;;;;5056028;28;20214;-78
2024/03/24 06:40:14;;;;;;;4.68;2.88;;;8.10;99.90;;;;;;5027355;28;20170;-78
2024/03/24 06:42:49;;;;;;;8.52;3.05;;;8.10;99.90;;;;;;5028485;28;20318;-78
2024/03/24 06:45:15;;;;;;;5.13;3.15;;;8.20;99.90;;;;;;5041603;28;20172;-78
2024/03/24 06:47:41;;;;;;;4.75;2.70;;;8.30;99.90;;;;;;5048969;28;20212;-78
2024/03/24 06:50:07;;;;;;;5.87;3.00;;;8.30;99.90;;;;;;5046423;28;20178;-78
2024/03/24 06:52:34;;;;;;;10.35;4.20;;;8.30;99.90;;;;;;5042140;28;20174;-78
2024/03/24 06:55:00;;;;;;;7.15;3.55;;;8.40;99.90;;;;;;5037768;28;20166;-78
2024/03/24 06:57:26;;;;;;;13.20;3.97;;;8.50;99.90;;;;;;5036628;28;20237;-77
2024/03/24 06:59:53;;;;;;;8.00;3.28;;;8.50;99.90;;;;;;5041237;28;20592;-78
2024/03/24 07:02:18;;;;;;;10.93;3.75;;;8.60;99.90;;;;;;5041317;28;20197;-78
2024/03/24 07:04:44;;;;;;;11.80;3.87;;;8.60;99.90;;;;;;5034039;28;20178;-78
2024/03/24 07:07:10;;;;;;;7.27;2.77;;;8.70;99.90;;;;;;5037260;28;20215;-78
2024/03/24 07:09:35;;;;;;;7.80;3.50;;;8.80;99.90;;;;;;5043662;28;21115;-78
2024/03/24 07:12:01;;;;;;;6.13;3.03;;;8.80;99.90;;;;;;5025166;28;20204;-77
2024/03/24 07:14:27;;;;;;;6.13;2.73;;;8.80;99.90;;;;;;5036820;28;20174;-77
2024/03/24 07:16:53;;;;;;;9.53;3.60;;;8.80;99.90;;;;;;5036856;28;20676;-78
2024/03/24 07:19:19;;;;;;;8.53;2.57;;;8.80;99.90;;;;;;5041279;28;20213;-78
2024/03/24 07:21:47;;;;;;;6.00;3.30;;;8.80;99.90;;;;;;5039709;28;20173;-77
2024/03/24 07:24:13;;;;;;;7.82;2.75;;;8.70;99.90;;;;;;5048358;28;20246;-78
2024/03/24 07:26:39;;;;;;;3.93;2.20;;;8.70;99.90;;;;;;5031351;28;20688;-77
2024/03/24 07:29:05;;;;;;;7.60;3.17;;;8.70;99.90;;;;;;5032570;28;20619;-77
2024/03/24 07:31:31;;;;;;;5.60;2.63;;;8.70;99.90;;;;;;5014231;28;20224;-78
2024/03/24 07:33:57;;;;;;;4.68;1.98;;;8.70;99.90;;;;;;5030663;28;20188;-79
2024/03/24 07:36:23;;;;;;;4.27;2.50;;;8.70;99.90;;;;;;5047374;28;20264;-78
2024/03/24 07:38:49;;;;;;;7.47;2.50;;;8.60;99.90;;;;;;5031036;28;20698;-78
2024/03/24 07:41:17;;;;;;;4.68;2.10;;;8.60;99.90;;;;;;5040139;28;20184;-77
2024/03/24 07:43:43;;;;;;;6.40;2.67;;;8.60;99.90;;;;;;5030863;28;20170;-78
2024/03/24 07:46:09;;;;;;;3.60;1.95;;;8.50;99.90;;;;;;5040350;28;20180;-78
2024/03/24 07:48:37;;;;;;;7.15;2.15;;;8.40;99.90;;;;;;5031248;28;20939;-77
2024/03/24 07:51:04;;;;;;;7.15;1.92;;;8.40;99.90;;;;;;5032206;28;20620;-77
2024/03/24 07:53:30;;;;;;;7.53;2.00;;;8.30;99.90;;;;;;5047207;28;20220;-76
2024/03/24 07:55:56;;;;;;;4.88;2.40;;;8.30;99.90;;;;;;5030419;28;20589;-76
2024/03/24 07:58:22;;;;;;;3.95;2.30;;;8.30;99.90;;;;;;5032446;28;20292;-77
2024/03/24 08:00:48;;;;;;;4.70;1.60;;;8.30;99.90;;;;;;5047114;28;20260;-77
2024/03/24 08:03:14;;;;;;;3.35;1.63;;;8.40;99.90;;;;;;5030322;28;20631;-77
2024/03/24 08:05:40;;;;;;;3.20;1.43;;;8.50;99.90;;;;;;5031858;28;20647;-77
2024/03/24 08:08:06;;;;;;;4.22;1.73;;;8.60;99.90;;;;;;5032216;28;20625;-77
2024/03/24 08:10:32;;;;;;;6.23;1.80;;;8.60;99.90;;;;;;5039758;28;20209;-77
2024/03/24 08:12:58;;;;;;;4.90;1.70;;;8.70;99.90;;;;;;5031518;28;20628;-77
2024/03/24 08:15:23;;;;;;;4.73;1.20;;;8.80;99.90;;;;;;5029624;28;20563;-77
2024/03/24 08:17:49;;;;;;;3.97;1.57;;;8.90;99.90;;;;;;5031343;28;20656;-77
2024/03/24 08:20:15;;;;;;;4.03;1.47;;;8.90;99.90;;;;;;5031711;28;20184;-77
2024/03/24 08:22:40;;;;;;;5.00;1.30;;;9.00;99.90;;;;;;5039053;28;20182;-77
2024/03/24 08:25:06;;;;;;;3.53;1.50;;;9.00;99.90;;;;;;5029876;28;20530;-77
2024/03/24 08:27:32;;;;;;;2.20;1.00;;;9.10;99.90;;;;;;5040665;28;20208;-77
2024/03/24 08:29:58;;;;;;;3.53;1.43;;;9.30;99.90;;;;;;5038349;28;20173;-77
2024/03/24 08:32:25;;;;;;;3.67;1.10;;;9.30;99.90;;;;;;5039093;28;20301;-76
2024/03/24 08:34:51;;;;;;;2.30;1.30;;;9.50;99.90;;;;;;5030921;28;20268;-77
2024/03/24 08:37:17;;;;;;;1.85;0.98;;;9.60;99.90;;;;;;5030824;28;20179;-77
2024/03/24 08:39:42;;;;;;;3.45;1.35;;;9.70;99.90;;;;;;5031143;28;20536;-77
2024/03/24 08:42:08;;;;;;;4.93;1.37;;;9.70;99.90;;;;;;5029734;28;20182;-76
2024/03/24 08:44:34;;;;;;;2.63;1.10;;;9.80;99.90;;;;;;5035870;28;20189;-76
2024/03/24 08:47:00;;;;;;;4.20;1.90;;;9.80;99.90;;;;;;5017742;28;20594;-76
2024/03/24 08:49:26;;;;;;;3.75;1.42;;;10.00;99.90;;;;;;5032275;28;20200;-77
2024/03/24 08:51:52;;;;;;;3.10;1.87;;;10.30;99.90;;;;;;5031262;28;20227;-78
2024/03/24 08:54:21;;;;;;;4.43;1.60;;;10.70;99.90;;;;;;5014648;28;20169;-76
2024/03/24 08:56:47;;;;;;;5.60;1.40;;;11.20;99.90;;;;;;5046001;28;20173;-76
2024/03/24 08:59:12;;;;;;;2.97;1.37;;;11.80;99.90;;;;;;5046568;28;20272;-77
2024/03/24 09:01:38;;;;;;;3.30;1.30;;;12.50;99.90;;;;;;5034896;28;20181;-77
2024/03/24 09:04:04;;;;;;;3.23;1.43;;;13.50;99.90;;;;;;5023647;28;20174;-79
2024/03/24 09:06:30;;;;;;;6.20;1.27;;;14.50;99.90;;;;;;5032479;28;20186;-77
2024/03/24 09:08:56;;;;;;;2.33;1.00;;;15.10;99.90;;;;;;5031900;28;20255;-80
2024/03/24 09:11:22;;;;;;;2.90;1.00;;;15.40;99.90;;;;;;5047327;28;20635;-80
2024/03/24 09:13:48;;;;;;;2.87;1.00;;;15.40;99.90;;;;;;5050717;28;20588;-79
2024/03/24 09:16:13;;;;;;;4.20;1.50;;;15.30;99.90;;;;;;5055195;28;20222;-79
2024/03/24 09:18:39;;;;;;;3.60;1.70;;;15.20;99.90;;;;;;5051548;28;20209;-80
2024/03/24 09:21:05;;;;;;;3.93;1.60;;;15.10;99.90;;;;;;5050132;28;20177;-78
2024/03/24 09:23:34;;;;;;;1.93;1.17;;;15.00;99.90;;;;;;5028530;28;20268;-78
2024/03/24 09:26:00;;;;;;;3.63;1.37;;;14.80;99.90;;;;;;5036806;28;20591;-79
2024/03/24 09:28:26;;;;;;;3.70;1.70;;;14.70;99.90;;;;;;5031586;28;20703;-79
2024/03/24 09:30:58;;;;;;;6.70;1.90;;;14.60;99.90;;;;;;5041572;28;20731;-79
2024/03/24 09:33:25;;;;;;;5.30;1.80;;;14.70;99.90;;;;;;5039644;28;20184;-79
2024/03/24 09:35:51;;;;;;;4.67;1.90;;;15.00;99.90;;;;;;5046732;28;20627;-77
2024/03/24 09:38:16;;;;;;;2.43;1.50;;;15.20;99.90;;;;;;5041210;28;20666;-77
2024/03/24 09:40:42;;;;;;;4.10;1.67;;;15.30;99.90;;;;;;5032468;28;20189;-76
2024/03/24 09:43:08;;;;;;;4.93;2.00;;;15.20;99.90;;;;;;5050339;28;20255;-76
2024/03/24 09:45:34;;;;;;;4.90;1.63;;;15.30;99.90;;;;;;5048271;28;20875;-76
2024/03/24 09:48:02;;;;;;;3.97;1.87;;;15.20;99.90;;;;;;5048737;28;20608;-76
2024/03/24 09:50:31;;;;;;;5.43;1.80;;;15.10;99.90;;;;;;5048331;28;20622;-76
2024/03/24 09:52:59;;;;;;;8.23;2.17;;;15.10;99.90;;;;;;5033932;28;20954;-77
2024/03/24 09:55:29;;;;;;;4.50;1.90;;;15.10;99.90;;;;;;5036460;28;20942;-77
2024/03/24 09:57:56;;;;;;;5.50;1.90;;;15.00;99.90;;;;;;5032204;28;20647;-76
2024/03/24 10:00:22;;;;;;;5.47;2.00;;;15.10;99.90;;;;;;5057536;28;21021;-76
2024/03/24 10:02:49;;;;;;;5.87;2.20;;;15.20;99.90;;;;;;5036393;28;20627;-77
2024/03/24 10:05:17;;;;;;;5.67;1.93;;;15.30;99.90;;;;;;5048792;28;20599;-76
2024/03/24 10:07:46;;;;;;;12.37;2.77;;;15.30;99.90;;;;;;5048745;28;20639;-77
2024/03/24 10:10:13;;;;;;;5.53;2.00;;;15.30;99.90;;;;;;5050698;28;20602;-76
2024/03/24 10:12:51;;;;;;;4.00;3.07;;;15.40;99.90;;;;;;5053358;28;20631;-77
2024/03/24 10:15:25;;;;;;;8.87;2.27;;;15.40;99.90;;;;;;5053618;28;20643;-77
2024/03/24 10:18:09;;;;;;;5.30;2.10;;;15.30;99.90;;;;;;5035448;28;20622;-76
2024/03/24 10:20:37;;;;;;;11.60;2.50;;;15.20;99.90;;;;;;5051794;28;20690;-77
2024/03/24 10:23:03;;;;;;;4.83;2.33;;;15.10;99.90;;;;;;5068236;28;20615;-77
2024/03/24 10:25:31;;;;;;;5.63;2.60;;;15.10;99.90;;;;;;5053852;28;20579;-76
2024/03/24 10:27:58;;;;;;;4.40;2.30;;;15.40;99.90;;;;;;5054213;28;20832;-76
2024/03/24 10:30:24;;;;;;;4.63;2.43;;;15.90;99.90;;;;;;5046212;28;20660;-76
2024/03/24 10:32:50;;;;;;;4.77;2.33;;;16.20;99.90;;;;;;5048871;28;20577;-77
2024/03/24 10:35:16;;;;;;;5.20;2.33;;;16.10;99.90;;;;;;5035397;28;20571;-77
2024/03/24 10:37:43;;;;;;;5.70;2.30;;;16.00;99.90;;;;;;5053359;28;20618;-77
2024/03/24 10:40:13;;;;;;;2.97;1.97;;;15.70;99.90;;;;;;5053355;28;20540;-77
2024/03/24 10:42:47;;;;;;;6.37;2.73;;;15.70;99.90;;;;;;5035142;28;20594;-77
2024/03/24 10:45:24;;;;;;;5.80;2.57;;;15.80;99.90;;;;;;5052977;28;20662;-77
2024/03/24 10:47:58;;;;;;;6.83;1.80;;;15.90;99.90;;;;;;5055547;28;20639;-76
2024/03/24 10:50:25;;;;;;;5.50;2.17;;;16.10;99.90;;;;;;5048750;28;20586;-77
2024/03/24 10:52:55;;;;;;;7.03;2.97;;;16.00;99.90;;;;;;5053008;28;20567;-77
2024/03/24 10:55:22;;;;;;;6.03;2.90;;;16.10;99.90;;;;;;5052656;28;20575;-76
2024/03/24 10:57:49;;;;;;;9.17;2.27;;;16.20;99.90;;;;;;5049298;28;20728;-77
2024/03/24 11:00:15;;;;;;;6.00;2.20;;;16.10;99.90;;;;;;5048433;28;20584;-77
2024/03/24 11:02:43;;;;;;;9.07;2.70;;;16.00;99.90;;;;;;5050171;28;20583;-77
2024/03/24 11:05:10;;;;;;;7.73;3.03;;;16.00;99.90;;;;;;5044174;28;20590;-77
2024/03/24 11:07:39;;;;;;;9.27;2.07;;;15.90;99.90;;;;;;5043477;28;20630;-77
2024/03/24 11:10:06;;;;;;;8.13;2.80;;;15.60;99.90;;;;;;5047454;28;20675;-77
2024/03/24 11:12:36;;;;;;;7.23;2.27;;;15.40;99.90;;;;;;5036239;28;21011;-77
2024/03/24 11:15:05;;;;;;;6.07;2.60;;;15.30;99.90;;;;;;5031643;28;20592;-77
2024/03/24 11:17:31;;;;;;;9.70;2.10;;;15.30;99.90;;;;;;5050824;28;20685;-76
2024/03/24 11:20:01;;;;;;;5.13;1.50;;;15.60;99.90;;;;;;5045388;28;20576;-77
2024/03/24 11:22:44;;;;;;;6.97;1.87;;;15.70;99.90;;;;;;5032988;28;20576;-75
2024/03/24 11:25:10;;;;;;;4.37;1.60;;;15.80;99.90;;;;;;5051301;28;20623;-76
2024/03/24 11:27:40;;;;;;;8.37;2.50;;;15.90;99.90;;;;;;5053095;28;21095;-76
2024/03/24 11:30:06;;;;;;;5.47;2.13;;;15.90;99.90;;;;;;5063082;28;20949;-76
2024/03/24 11:32:53;;;;;;;6.77;3.00;;;15.90;99.90;;;;;;5062520;28;20618;-75
2024/03/24 11:35:26;;;;;;;8.30;1.90;;;15.70;99.90;;;;;;5050877;28;20597;-75
2024/03/24 11:37:55;;;;;;;7.00;2.20;;;15.60;99.90;;;;;;5034266;28;20618;-76
2024/03/24 11:40:30;;;;;;;4.60;2.00;;;15.40;99.90;;;;;;5052102;28;20668;-76
2024/03/24 11:42:56;;;;;;;6.20;1.90;;;15.10;99.90;;;;;;5052032;28;20590;-76
2024/03/24 11:45:30;;;;;;;5.37;1.90;;;14.80;99.90;;;;;;5050583;28;20602;-76
2024/03/24 11:48:19;;;;;;;5.10;1.60;;;14.50;99.90;;;;;;5052024;28;20704;-76
2024/03/24 11:50:47;;;;;;;4.03;1.73;;;14.20;99.90;;;;;;5047055;28;20665;-77
2024/03/24 11:53:13;;;;;;;5.10;2.20;;;13.90;99.90;;;;;;5040463;28;20659;-77
2024/03/24 11:55:40;;;;;;;6.27;1.87;;;13.70;99.90;;;;;;5031533;28;20174;-77
2024/03/24 11:58:06;;;;;;;3.97;1.63;;;13.50;99.90;;;;;;5044628;28;20951;-77
2024/03/24 12:00:32;;;;;;;3.92;1.35;;;13.30;99.90;;;;;;5056390;28;20594;-77
2024/03/24 12:02:58;;;;;;;5.33;1.77;;;13.20;99.90;;;;;;5031890;28;20170;-77
2024/03/24 12:05:24;;;;;;;6.00;2.08;;;13.10;99.90;;;;;;5050244;28;20607;-77
2024/03/24 12:07:51;;;;;;;4.60;2.00;;;12.90;99.90;;;;;;5050204;28;20603;-77
2024/03/24 12:10:17;;;;;;;5.80;1.70;;;12.90;99.90;;;;;;5050217;28;20580;-77
2024/03/24 12:12:44;;;;;;;7.37;2.37;;;12.90;99.90;;;;;;5049965;28;20690;-77
2024/03/24 12:15:09;;;;;;;12.63;2.50;;;12.90;99.90;;;;;;5050066;28;20682;-77
2024/03/24 12:17:35;;;;;;;9.20;2.63;;;13.00;99.90;;;;;;5051360;28;20722;-77
2024/03/24 12:20:05;;;;;;;5.20;1.67;;;13.10;99.90;;;;;;5063472;23;20213;-74
2024/03/24 12:22:34;;;;;;;7.30;2.60;;;13.00;99.90;;;;;;5029740;28;20173;-74
2024/03/24 12:25:00;;;;;;;8.68;2.55;;;13.00;99.90;;;;;;5039509;28;20615;-74
2024/03/24 12:27:26;;;;;;;10.70;2.78;;;12.90;99.90;;;;;;5029944;28;20178;-74
2024/03/24 12:29:56;;;;;;;6.63;2.40;;;12.80;99.90;;;;;;5027283;28;20202;-74
2024/03/24 12:32:26;;;;;;;5.10;2.33;;;12.80;99.90;;;;;;5017780;28;20582;-74
2024/03/24 12:34:52;;;;;;;6.03;2.20;;;12.80;99.90;;;;;;5029095;28;20588;-74
2024/03/24 12:37:18;;;;;;;9.27;4.20;;;12.80;99.90;;;;;;5031129;28;20584;-74
2024/03/24 12:39:50;;;;;;;9.82;2.08;;;12.80;99.90;;;;;;5015650;28;20630;-74
2024/03/24 12:42:16;;;;;;;7.28;2.20;;;12.80;99.90;;;;;;5029623;28;20182;-74
2024/03/24 12:44:42;;;;;;;7.97;2.00;;;12.80;99.90;;;;;;5030529;28;20243;-73
2024/03/24 12:47:15;;;;;;;6.38;1.83;;;12.80;99.90;;;;;;5025179;28;20954;-74
2024/03/24 12:49:41;;;;;;;7.75;2.05;;;12.80;99.90;;;;;;5019816;28;20284;-74
2024/03/24 12:52:08;;;;;;;5.30;2.60;;;12.80;99.90;;;;;;5030655;28;20206;-74